sensor_id;sensor_type;location;lat;lon;timestamp;P1;durP1;ratioP1;P2;durP2;ratioP2
49948;SDS011;35840;45.982;8.890;2023-03-22T00:01:16;17.15;;;11.60;;
49948;SDS011;35840;45.982;8.890;2023-03-22T00:03:45;16.55;;;11.60;;
49948;SDS011;35840;45.982;8.890;2023-03-22T00:06:13;15.85;;;11.43;;
49948;SDS011;35840;45.982;8.890;2023-03-22T00:08:42;25.90;;;11.73;;
49948;SDS011;35840;45.982;8.890;2023-03-22T00:11:09;17.17;;;12.02;;
49948;SDS011;35840;45.982;8.890;2023-03-22T00:13:37;14.35;;;10.48;;
49948;SDS011;35840;45.982;8.890;2023-03-22T00:16:04;14.52;;;11.27;;
49948;SDS011;35840;45.982;8.890;2023-03-22T00:18:31;18.55;;;12.48;;
49948;SDS011;35840;45.982;8.890;2023-03-22T00:20:58;15.35;;;11.63;;
49948;SDS011;35840;45.982;8.890;2023-03-22T00:23:26;16.38;;;11.93;;
49948;SDS011;35840;45.982;8.890;2023-03-22T00:25:54;18.92;;;12.95;;
49948;SDS011;35840;45.982;8.890;2023-03-22T00:28:21;16.92;;;12.90;;
49948;SDS011;35840;45.982;8.890;2023-03-22T00:30:56;15.90;;;11.80;;
49948;SDS011;35840;45.982;8.890;2023-03-22T00:33:28;17.52;;;12.68;;
49948;SDS011;35840;45.982;8.890;2023-03-22T00:35:57;19.85;;;13.27;;
49948;SDS011;35840;45.982;8.890;2023-03-22T00:38:35;20.40;;;13.65;;
49948;SDS011;35840;45.982;8.890;2023-03-22T00:43:37;19.38;;;12.23;;
49948;SDS011;35840;45.982;8.890;2023-03-22T00:46:04;16.52;;;11.73;;
49948;SDS011;35840;45.982;8.890;2023-03-22T00:48:31;16.35;;;11.88;;
49948;SDS011;35840;45.982;8.890;2023-03-22T00:50:58;17.15;;;12.77;;
49948;SDS011;35840;45.982;8.890;2023-03-22T00:53:26;21.15;;;12.63;;
49948;SDS011;35840;45.982;8.890;2023-03-22T00:55:57;17.42;;;12.70;;
49948;SDS011;35840;45.982;8.890;2023-03-22T00:58:26;18.67;;;13.38;;
49948;SDS011;35840;45.982;8.890;2023-03-22T01:00:53;17.00;;;12.32;;
49948;SDS011;35840;45.982;8.890;2023-03-22T01:03:20;18.35;;;11.98;;
49948;SDS011;35840;45.982;8.890;2023-03-22T01:05:47;17.27;;;12.27;;
49948;SDS011;35840;45.982;8.890;2023-03-22T01:08:14;20.10;;;14.32;;
49948;SDS011;35840;45.982;8.890;2023-03-22T01:10:42;15.88;;;12.52;;
49948;SDS011;35840;45.982;8.890;2023-03-22T01:13:10;19.45;;;13.27;;
49948;SDS011;35840;45.982;8.890;2023-03-22T01:15:38;17.02;;;13.27;;
49948;SDS011;35840;45.982;8.890;2023-03-22T01:18:04;20.38;;;14.15;;
49948;SDS011;35840;45.982;8.890;2023-03-22T01:20:32;20.42;;;13.60;;
49948;SDS011;35840;45.982;8.890;2023-03-22T01:23:00;16.52;;;12.88;;
49948;SDS011;35840;45.982;8.890;2023-03-22T01:25:27;20.67;;;13.45;;
49948;SDS011;35840;45.982;8.890;2023-03-22T01:27:54;20.30;;;13.48;;
49948;SDS011;35840;45.982;8.890;2023-03-22T01:30:20;20.50;;;14.07;;
49948;SDS011;35840;45.982;8.890;2023-03-22T01:32:47;17.80;;;13.95;;
49948;SDS011;35840;45.982;8.890;2023-03-22T01:35:15;22.42;;;13.82;;
49948;SDS011;35840;45.982;8.890;2023-03-22T01:37:42;20.15;;;13.32;;
49948;SDS011;35840;45.982;8.890;2023-03-22T01:40:10;18.55;;;13.35;;
49948;SDS011;35840;45.982;8.890;2023-03-22T01:42:39;19.92;;;13.77;;
49948;SDS011;35840;45.982;8.890;2023-03-22T01:50:12;18.75;;;13.80;;
49948;SDS011;35840;45.982;8.890;2023-03-22T01:52:43;20.73;;;13.07;;
49948;SDS011;35840;45.982;8.890;2023-03-22T01:55:18;18.60;;;13.18;;
49948;SDS011;35840;45.982;8.890;2023-03-22T01:57:55;21.48;;;13.18;;
49948;SDS011;35840;45.982;8.890;2023-03-22T02:00:35;18.98;;;13.85;;
49948;SDS011;35840;45.982;8.890;2023-03-22T02:03:34;18.10;;;12.40;;
49948;SDS011;35840;45.982;8.890;2023-03-22T02:06:04;22.90;;;14.95;;
49948;SDS011;35840;45.982;8.890;2023-03-22T02:08:32;27.48;;;14.25;;
49948;SDS011;35840;45.982;8.890;2023-03-22T02:11:05;22.13;;;14.38;;
49948;SDS011;35840;45.982;8.890;2023-03-22T02:47:22;19.27;;;14.23;;
49948;SDS011;35840;45.982;8.890;2023-03-22T02:49:57;21.73;;;14.05;;
49948;SDS011;35840;45.982;8.890;2023-03-22T02:55:05;19.08;;;14.02;;
49948;SDS011;35840;45.982;8.890;2023-03-22T02:57:36;20.65;;;13.80;;
49948;SDS011;35840;45.982;8.890;2023-03-22T03:00:05;19.88;;;14.48;;
49948;SDS011;35840;45.982;8.890;2023-03-22T03:02:41;22.33;;;14.90;;
49948;SDS011;35840;45.982;8.890;2023-03-22T03:05:12;21.15;;;13.85;;
49948;SDS011;35840;45.982;8.890;2023-03-22T03:07:46;19.92;;;13.52;;
49948;SDS011;35840;45.982;8.890;2023-03-22T03:10:18;17.48;;;13.48;;
49948;SDS011;35840;45.982;8.890;2023-03-22T03:12:46;16.20;;;12.48;;
49948;SDS011;35840;45.982;8.890;2023-03-22T03:15:17;18.80;;;13.48;;
49948;SDS011;35840;45.982;8.890;2023-03-22T03:18:08;18.95;;;13.45;;
49948;SDS011;35840;45.982;8.890;2023-03-22T03:26:42;21.17;;;13.93;;
49948;SDS011;35840;45.982;8.890;2023-03-22T03:29:43;19.30;;;13.82;;
49948;SDS011;35840;45.982;8.890;2023-03-22T03:32:20;21.27;;;14.45;;
49948;SDS011;35840;45.982;8.890;2023-03-22T03:34:58;21.67;;;15.15;;
49948;SDS011;35840;45.982;8.890;2023-03-22T03:37:43;21.00;;;14.98;;
49948;SDS011;35840;45.982;8.890;2023-03-22T03:40:26;19.98;;;14.60;;
49948;SDS011;35840;45.982;8.890;2023-03-22T03:42:56;24.02;;;14.95;;
49948;SDS011;35840;45.982;8.890;2023-03-22T03:45:29;21.67;;;14.93;;
49948;SDS011;35840;45.982;8.890;2023-03-22T03:47:57;23.92;;;16.80;;
49948;SDS011;35840;45.982;8.890;2023-03-22T03:50:26;22.08;;;14.68;;
49948;SDS011;35840;45.982;8.890;2023-03-22T03:52:54;23.92;;;16.15;;
49948;SDS011;35840;45.982;8.890;2023-03-22T03:55:22;21.63;;;14.52;;
49948;SDS011;35840;45.982;8.890;2023-03-22T03:57:49;21.65;;;15.05;;
49948;SDS011;35840;45.982;8.890;2023-03-22T04:00:16;27.83;;;15.77;;
49948;SDS011;35840;45.982;8.890;2023-03-22T04:03:06;22.08;;;15.30;;
49948;SDS011;35840;45.982;8.890;2023-03-22T04:05:48;22.35;;;14.90;;
49948;SDS011;35840;45.982;8.890;2023-03-22T04:08:15;23.42;;;14.93;;
49948;SDS011;35840;45.982;8.890;2023-03-22T04:10:42;18.77;;;14.52;;
49948;SDS011;35840;45.982;8.890;2023-03-22T04:13:13;21.83;;;14.77;;
49948;SDS011;35840;45.982;8.890;2023-03-22T04:15:41;22.38;;;15.38;;
49948;SDS011;35840;45.982;8.890;2023-03-22T04:18:12;20.27;;;15.23;;
49948;SDS011;35840;45.982;8.890;2023-03-22T04:20:39;20.13;;;13.93;;
49948;SDS011;35840;45.982;8.890;2023-03-22T04:23:07;22.70;;;14.80;;
49948;SDS011;35840;45.982;8.890;2023-03-22T04:25:37;21.23;;;14.48;;
49948;SDS011;35840;45.982;8.890;2023-03-22T04:28:08;20.63;;;14.65;;
49948;SDS011;35840;45.982;8.890;2023-03-22T04:30:36;21.45;;;14.20;;
49948;SDS011;35840;45.982;8.890;2023-03-22T04:33:18;21.58;;;15.35;;
49948;SDS011;35840;45.982;8.890;2023-03-22T04:36:09;20.38;;;13.35;;
49948;SDS011;35840;45.982;8.890;2023-03-22T04:38:50;21.67;;;14.57;;
49948;SDS011;35840;45.982;8.890;2023-03-22T04:41:21;21.33;;;14.25;;
49948;SDS011;35840;45.982;8.890;2023-03-22T04:43:50;20.10;;;13.43;;
49948;SDS011;35840;45.982;8.890;2023-03-22T04:46:17;20.65;;;14.00;;
49948;SDS011;35840;45.982;8.890;2023-03-22T04:48:53;19.45;;;13.88;;
49948;SDS011;35840;45.982;8.890;2023-03-22T04:51:20;19.58;;;15.05;;
49948;SDS011;35840;45.982;8.890;2023-03-22T04:54:02;21.23;;;14.23;;
49948;SDS011;35840;45.982;8.890;2023-03-22T04:56:28;20.02;;;14.13;;
49948;SDS011;35840;45.982;8.890;2023-03-22T04:58:55;20.58;;;13.68;;
49948;SDS011;35840;45.982;8.890;2023-03-22T05:01:22;24.38;;;15.25;;
49948;SDS011;35840;45.982;8.890;2023-03-22T05:03:58;23.17;;;13.73;;
49948;SDS011;35840;45.982;8.890;2023-03-22T05:06:25;21.85;;;14.20;;
49948;SDS011;35840;45.982;8.890;2023-03-22T05:09:06;20.70;;;15.13;;
49948;SDS011;35840;45.982;8.890;2023-03-22T05:11:34;20.02;;;13.98;;
49948;SDS011;35840;45.982;8.890;2023-03-22T05:14:16;20.60;;;13.10;;
49948;SDS011;35840;45.982;8.890;2023-03-22T05:16:44;22.45;;;14.80;;
49948;SDS011;35840;45.982;8.890;2023-03-22T05:19:12;19.13;;;13.95;;
49948;SDS011;35840;45.982;8.890;2023-03-22T05:21:46;23.23;;;14.25;;
49948;SDS011;35840;45.982;8.890;2023-03-22T05:24:13;21.75;;;14.18;;
49948;SDS011;35840;45.982;8.890;2023-03-22T05:26:44;26.00;;;15.27;;
49948;SDS011;35840;45.982;8.890;2023-03-22T05:29:11;21.73;;;13.90;;
49948;SDS011;35840;45.982;8.890;2023-03-22T05:31:56;21.33;;;14.43;;
49948;SDS011;35840;45.982;8.890;2023-03-22T05:34:23;21.63;;;14.20;;
49948;SDS011;35840;45.982;8.890;2023-03-22T05:36:50;20.60;;;14.88;;
49948;SDS011;35840;45.982;8.890;2023-03-22T05:39:29;22.73;;;14.23;;
49948;SDS011;35840;45.982;8.890;2023-03-22T05:41:57;22.58;;;14.48;;
49948;SDS011;35840;45.982;8.890;2023-03-22T05:44:23;21.60;;;14.13;;
49948;SDS011;35840;45.982;8.890;2023-03-22T05:47:05;22.38;;;15.23;;
49948;SDS011;35840;45.982;8.890;2023-03-22T05:49:53;19.80;;;13.82;;
49948;SDS011;35840;45.982;8.890;2023-03-22T05:52:21;24.23;;;14.77;;
49948;SDS011;35840;45.982;8.890;2023-03-22T05:55:00;20.98;;;14.38;;
49948;SDS011;35840;45.982;8.890;2023-03-22T05:57:27;25.60;;;15.05;;
49948;SDS011;35840;45.982;8.890;2023-03-22T05:59:56;19.80;;;14.27;;
49948;SDS011;35840;45.982;8.890;2023-03-22T06:02:27;22.85;;;15.02;;
49948;SDS011;35840;45.982;8.890;2023-03-22T06:04:54;19.58;;;14.68;;
49948;SDS011;35840;45.982;8.890;2023-03-22T06:07:22;20.83;;;14.50;;
49948;SDS011;35840;45.982;8.890;2023-03-22T06:09:52;19.13;;;13.60;;
49948;SDS011;35840;45.982;8.890;2023-03-22T06:12:23;23.30;;;14.40;;
49948;SDS011;35840;45.982;8.890;2023-03-22T06:15:11;22.83;;;14.18;;
49948;SDS011;35840;45.982;8.890;2023-03-22T06:17:48;18.48;;;13.70;;
49948;SDS011;35840;45.982;8.890;2023-03-22T06:20:20;20.58;;;14.90;;
49948;SDS011;35840;45.982;8.890;2023-03-22T06:22:52;21.95;;;15.30;;
49948;SDS011;35840;45.982;8.890;2023-03-22T06:25:19;25.63;;;16.13;;
49948;SDS011;35840;45.982;8.890;2023-03-22T06:27:49;21.00;;;14.32;;
49948;SDS011;35840;45.982;8.890;2023-03-22T06:30:16;22.23;;;16.10;;
49948;SDS011;35840;45.982;8.890;2023-03-22T06:33:02;25.13;;;15.40;;
49948;SDS011;35840;45.982;8.890;2023-03-22T06:35:35;24.65;;;16.15;;
49948;SDS011;35840;45.982;8.890;2023-03-22T06:38:03;23.10;;;15.32;;
49948;SDS011;35840;45.982;8.890;2023-03-22T06:40:30;24.63;;;16.70;;
49948;SDS011;35840;45.982;8.890;2023-03-22T06:42:57;24.25;;;16.92;;
49948;SDS011;35840;45.982;8.890;2023-03-22T06:45:30;25.67;;;16.33;;
49948;SDS011;35840;45.982;8.890;2023-03-22T06:48:00;27.10;;;17.85;;
49948;SDS011;35840;45.982;8.890;2023-03-22T06:50:36;24.10;;;16.88;;
49948;SDS011;35840;45.982;8.890;2023-03-22T06:53:16;24.30;;;17.50;;
49948;SDS011;35840;45.982;8.890;2023-03-22T06:55:43;25.25;;;18.10;;
49948;SDS011;35840;45.982;8.890;2023-03-22T06:58:16;24.52;;;16.65;;
49948;SDS011;35840;45.982;8.890;2023-03-22T07:00:43;26.48;;;17.27;;
49948;SDS011;35840;45.982;8.890;2023-03-22T07:03:12;28.25;;;18.25;;
49948;SDS011;35840;45.982;8.890;2023-03-22T07:05:45;25.85;;;18.45;;
49948;SDS011;35840;45.982;8.890;2023-03-22T07:08:11;30.88;;;19.10;;
49948;SDS011;35840;45.982;8.890;2023-03-22T07:10:49;26.38;;;18.88;;
49948;SDS011;35840;45.982;8.890;2023-03-22T07:13:19;23.27;;;17.67;;
49948;SDS011;35840;45.982;8.890;2023-03-22T07:15:47;28.77;;;19.70;;
49948;SDS011;35840;45.982;8.890;2023-03-22T07:18:37;28.33;;;19.00;;
49948;SDS011;35840;45.982;8.890;2023-03-22T07:21:04;23.95;;;18.50;;
49948;SDS011;35840;45.982;8.890;2023-03-22T07:23:33;25.13;;;18.60;;
49948;SDS011;35840;45.982;8.890;2023-03-22T07:26:05;28.65;;;17.90;;
49948;SDS011;35840;45.982;8.890;2023-03-22T07:28:34;25.35;;;18.48;;
49948;SDS011;35840;45.982;8.890;2023-03-22T07:31:04;26.38;;;18.92;;
49948;SDS011;35840;45.982;8.890;2023-03-22T07:33:43;29.85;;;18.13;;
49948;SDS011;35840;45.982;8.890;2023-03-22T07:36:10;30.10;;;18.52;;
49948;SDS011;35840;45.982;8.890;2023-03-22T07:38:37;23.65;;;18.73;;
49948;SDS011;35840;45.982;8.890;2023-03-22T07:41:09;26.63;;;18.77;;
49948;SDS011;35840;45.982;8.890;2023-03-22T07:43:52;25.48;;;18.40;;
49948;SDS011;35840;45.982;8.890;2023-03-22T07:46:38;29.60;;;20.40;;
49948;SDS011;35840;45.982;8.890;2023-03-22T07:49:16;27.25;;;19.05;;
49948;SDS011;35840;45.982;8.890;2023-03-22T07:52:01;26.70;;;16.98;;
49948;SDS011;35840;45.982;8.890;2023-03-22T07:54:28;28.10;;;19.20;;
49948;SDS011;35840;45.982;8.890;2023-03-22T07:57:01;28.67;;;20.42;;
49948;SDS011;35840;45.982;8.890;2023-03-22T07:59:29;28.02;;;18.92;;
49948;SDS011;35840;45.982;8.890;2023-03-22T08:01:58;31.05;;;21.50;;
49948;SDS011;35840;45.982;8.890;2023-03-22T08:04:31;28.15;;;18.77;;
49948;SDS011;35840;45.982;8.890;2023-03-22T08:07:09;25.55;;;18.52;;
49948;SDS011;35840;45.982;8.890;2023-03-22T08:09:36;24.30;;;19.13;;
49948;SDS011;35840;45.982;8.890;2023-03-22T08:12:04;27.65;;;17.73;;
49948;SDS011;35840;45.982;8.890;2023-03-22T08:14:32;27.98;;;19.50;;
49948;SDS011;35840;45.982;8.890;2023-03-22T08:17:07;25.23;;;17.70;;
49948;SDS011;35840;45.982;8.890;2023-03-22T08:19:34;24.40;;;18.75;;
49948;SDS011;35840;45.982;8.890;2023-03-22T08:22:02;24.05;;;17.08;;
49948;SDS011;35840;45.982;8.890;2023-03-22T08:24:51;30.98;;;18.55;;
49948;SDS011;35840;45.982;8.890;2023-03-22T08:27:24;30.88;;;19.55;;
49948;SDS011;35840;45.982;8.890;2023-03-22T08:29:52;24.23;;;18.35;;
49948;SDS011;35840;45.982;8.890;2023-03-22T08:32:19;27.25;;;19.73;;
49948;SDS011;35840;45.982;8.890;2023-03-22T08:34:46;30.70;;;18.52;;
49948;SDS011;35840;45.982;8.890;2023-03-22T08:37:13;28.80;;;18.42;;
49948;SDS011;35840;45.982;8.890;2023-03-22T08:39:42;26.02;;;19.60;;
49948;SDS011;35840;45.982;8.890;2023-03-22T08:42:32;28.17;;;20.50;;
49948;SDS011;35840;45.982;8.890;2023-03-22T08:45:00;25.77;;;18.60;;
49948;SDS011;35840;45.982;8.890;2023-03-22T08:47:28;30.20;;;20.00;;
49948;SDS011;35840;45.982;8.890;2023-03-22T08:49:59;27.08;;;18.83;;
49948;SDS011;35840;45.982;8.890;2023-03-22T08:52:37;27.52;;;18.40;;
49948;SDS011;35840;45.982;8.890;2023-03-22T08:55:09;24.65;;;19.13;;
49948;SDS011;35840;45.982;8.890;2023-03-22T08:57:54;23.02;;;16.67;;
49948;SDS011;35840;45.982;8.890;2023-03-22T09:00:32;23.45;;;16.45;;
49948;SDS011;35840;45.982;8.890;2023-03-22T09:03:43;25.88;;;16.67;;
49948;SDS011;35840;45.982;8.890;2023-03-22T09:06:10;21.48;;;16.58;;
49948;SDS011;35840;45.982;8.890;2023-03-22T09:08:39;24.25;;;16.27;;
49948;SDS011;35840;45.982;8.890;2023-03-22T09:11:11;22.90;;;16.02;;
49948;SDS011;35840;45.982;8.890;2023-03-22T09:13:40;24.85;;;16.17;;
49948;SDS011;35840;45.982;8.890;2023-03-22T09:16:07;24.98;;;17.63;;
49948;SDS011;35840;45.982;8.890;2023-03-22T09:18:35;26.42;;;17.08;;
49948;SDS011;35840;45.982;8.890;2023-03-22T09:21:09;22.75;;;14.98;;
49948;SDS011;35840;45.982;8.890;2023-03-22T09:23:59;21.83;;;14.30;;
49948;SDS011;35840;45.982;8.890;2023-03-22T09:26:36;25.63;;;16.00;;
49948;SDS011;35840;45.982;8.890;2023-03-22T09:29:04;20.25;;;15.07;;
49948;SDS011;35840;45.982;8.890;2023-03-22T09:31:32;20.25;;;14.63;;
49948;SDS011;35840;45.982;8.890;2023-03-22T09:34:09;20.45;;;14.70;;
49948;SDS011;35840;45.982;8.890;2023-03-22T09:36:36;20.50;;;14.65;;
49948;SDS011;35840;45.982;8.890;2023-03-22T09:39:03;20.42;;;15.60;;
49948;SDS011;35840;45.982;8.890;2023-03-22T09:41:43;23.88;;;14.95;;
49948;SDS011;35840;45.982;8.890;2023-03-22T09:44:15;21.42;;;14.73;;
49948;SDS011;35840;45.982;8.890;2023-03-22T09:46:49;23.63;;;16.52;;
49948;SDS011;35840;45.982;8.890;2023-03-22T09:49:20;20.92;;;15.32;;
49948;SDS011;35840;45.982;8.890;2023-03-22T09:51:52;25.98;;;17.40;;
49948;SDS011;35840;45.982;8.890;2023-03-22T09:56:54;25.48;;;17.08;;
49948;SDS011;35840;45.982;8.890;2023-03-22T10:10:43;30.80;;;20.40;;
49948;SDS011;35840;45.982;8.890;2023-03-22T10:13:22;29.75;;;20.88;;
49948;SDS011;35840;45.982;8.890;2023-03-22T10:15:56;29.27;;;19.63;;
49948;SDS011;35840;45.982;8.890;2023-03-22T10:18:28;30.40;;;22.10;;
49948;SDS011;35840;45.982;8.890;2023-03-22T10:21:05;37.72;;;23.15;;
49948;SDS011;35840;45.982;8.890;2023-03-22T10:23:37;30.27;;;21.70;;
49948;SDS011;35840;45.982;8.890;2023-03-22T10:26:05;32.85;;;22.95;;
49948;SDS011;35840;45.982;8.890;2023-03-22T10:30:59;33.97;;;21.83;;
49948;SDS011;35840;45.982;8.890;2023-03-22T10:33:39;34.83;;;22.20;;
49948;SDS011;35840;45.982;8.890;2023-03-22T10:36:29;36.40;;;22.13;;
49948;SDS011;35840;45.982;8.890;2023-03-22T10:39:02;35.75;;;21.90;;
49948;SDS011;35840;45.982;8.890;2023-03-22T10:44:02;34.15;;;24.98;;
49948;SDS011;35840;45.982;8.890;2023-03-22T10:46:36;38.53;;;24.40;;
49948;SDS011;35840;45.982;8.890;2023-03-22T10:49:04;42.75;;;26.08;;
49948;SDS011;35840;45.982;8.890;2023-03-22T10:51:34;41.97;;;26.33;;
49948;SDS011;35840;45.982;8.890;2023-03-22T10:54:09;39.47;;;25.15;;
49948;SDS011;35840;45.982;8.890;2023-03-22T10:56:38;35.83;;;24.48;;
49948;SDS011;35840;45.982;8.890;2023-03-22T10:59:05;37.20;;;23.67;;
49948;SDS011;35840;45.982;8.890;2023-03-22T11:01:35;36.92;;;24.83;;
49948;SDS011;35840;45.982;8.890;2023-03-22T11:06:30;31.58;;;22.33;;
49948;SDS011;35840;45.982;8.890;2023-03-22T11:09:15;29.15;;;21.77;;
49948;SDS011;35840;45.982;8.890;2023-03-22T11:11:48;31.73;;;22.38;;
49948;SDS011;35840;45.982;8.890;2023-03-22T11:14:41;32.25;;;23.30;;
49948;SDS011;35840;45.982;8.890;2023-03-22T11:17:10;37.42;;;23.48;;
49948;SDS011;35840;45.982;8.890;2023-03-22T11:19:41;41.88;;;24.83;;
49948;SDS011;35840;45.982;8.890;2023-03-22T11:25:19;32.65;;;22.15;;
49948;SDS011;35840;45.982;8.890;2023-03-22T11:27:55;38.65;;;23.40;;
49948;SDS011;35840;45.982;8.890;2023-03-22T11:30:24;32.72;;;21.20;;
49948;SDS011;35840;45.982;8.890;2023-03-22T11:33:16;31.80;;;22.95;;
49948;SDS011;35840;45.982;8.890;2023-03-22T11:35:46;36.83;;;22.83;;
49948;SDS011;35840;45.982;8.890;2023-03-22T11:38:25;35.60;;;21.83;;
49948;SDS011;35840;45.982;8.890;2023-03-22T11:40:59;31.92;;;21.13;;
49948;SDS011;35840;45.982;8.890;2023-03-22T11:46:06;33.22;;;22.25;;
49948;SDS011;35840;45.982;8.890;2023-03-22T11:48:34;31.45;;;20.60;;
49948;SDS011;35840;45.982;8.890;2023-03-22T11:51:12;32.72;;;21.73;;
49948;SDS011;35840;45.982;8.890;2023-03-22T11:53:45;34.95;;;20.85;;
49948;SDS011;35840;45.982;8.890;2023-03-22T11:56:28;27.42;;;20.58;;
49948;SDS011;35840;45.982;8.890;2023-03-22T11:58:57;33.60;;;20.33;;
49948;SDS011;35840;45.982;8.890;2023-03-22T12:01:36;28.88;;;18.95;;
49948;SDS011;35840;45.982;8.890;2023-03-22T12:04:12;32.63;;;20.83;;
49948;SDS011;35840;45.982;8.890;2023-03-22T12:06:40;29.67;;;19.38;;
49948;SDS011;35840;45.982;8.890;2023-03-22T12:12:16;35.38;;;22.73;;
49948;SDS011;35840;45.982;8.890;2023-03-22T12:23:20;29.33;;;20.05;;
49948;SDS011;35840;45.982;8.890;2023-03-22T12:25:49;29.35;;;18.33;;
49948;SDS011;35840;45.982;8.890;2023-03-22T12:28:22;24.73;;;18.25;;
49948;SDS011;35840;45.982;8.890;2023-03-22T12:30:55;26.73;;;17.58;;
49948;SDS011;35840;45.982;8.890;2023-03-22T12:33:28;26.10;;;17.48;;
49948;SDS011;35840;45.982;8.890;2023-03-22T12:36:09;29.98;;;17.48;;
49948;SDS011;35840;45.982;8.890;2023-03-22T12:38:47;28.40;;;17.52;;
49948;SDS011;35840;45.982;8.890;2023-03-22T12:41:23;26.27;;;16.67;;
49948;SDS011;35840;45.982;8.890;2023-03-22T12:43:53;26.65;;;17.08;;
49948;SDS011;35840;45.982;8.890;2023-03-22T12:46:34;30.45;;;18.10;;
49948;SDS011;35840;45.982;8.890;2023-03-22T12:52:14;22.65;;;15.05;;
49948;SDS011;35840;45.982;8.890;2023-03-22T12:54:45;22.85;;;15.63;;
49948;SDS011;35840;45.982;8.890;2023-03-22T12:57:13;25.88;;;15.20;;
49948;SDS011;35840;45.982;8.890;2023-03-22T12:59:42;24.17;;;16.17;;
49948;SDS011;35840;45.982;8.890;2023-03-22T13:07:13;26.73;;;15.73;;
49948;SDS011;35840;45.982;8.890;2023-03-22T13:09:59;22.33;;;15.27;;
49948;SDS011;35840;45.982;8.890;2023-03-22T13:13:09;24.33;;;14.68;;
49948;SDS011;35840;45.982;8.890;2023-03-22T13:15:35;25.02;;;16.83;;
49948;SDS011;35840;45.982;8.890;2023-03-22T13:26:33;23.95;;;15.73;;
49948;SDS011;35840;45.982;8.890;2023-03-22T13:32:27;27.63;;;17.13;;
49948;SDS011;35840;45.982;8.890;2023-03-22T13:34:55;23.05;;;15.80;;
49948;SDS011;35840;45.982;8.890;2023-03-22T13:40:01;21.45;;;14.32;;
49948;SDS011;35840;45.982;8.890;2023-03-22T13:42:38;23.58;;;14.35;;
49948;SDS011;35840;45.982;8.890;2023-03-22T13:45:07;23.50;;;14.15;;
49948;SDS011;35840;45.982;8.890;2023-03-22T13:48:01;22.00;;;14.63;;
49948;SDS011;35840;45.982;8.890;2023-03-22T13:50:31;23.05;;;16.90;;
49948;SDS011;35840;45.982;8.890;2023-03-22T13:53:04;21.73;;;15.25;;
49948;SDS011;35840;45.982;8.890;2023-03-22T14:03:53;24.92;;;14.52;;
49948;SDS011;35840;45.982;8.890;2023-03-22T14:06:24;24.15;;;14.85;;
49948;SDS011;35840;45.982;8.890;2023-03-22T14:08:58;21.45;;;15.02;;
49948;SDS011;35840;45.982;8.890;2023-03-22T14:11:28;25.95;;;14.52;;
49948;SDS011;35840;45.982;8.890;2023-03-22T14:14:08;22.58;;;13.85;;
49948;SDS011;35840;45.982;8.890;2023-03-22T14:16:42;27.58;;;17.42;;
49948;SDS011;35840;45.982;8.890;2023-03-22T14:21:47;22.75;;;15.05;;
49948;SDS011;35840;45.982;8.890;2023-03-22T14:24:16;20.98;;;14.63;;
49948;SDS011;35840;45.982;8.890;2023-03-22T14:26:46;21.83;;;13.82;;
49948;SDS011;35840;45.982;8.890;2023-03-22T14:29:19;24.97;;;14.07;;
49948;SDS011;35840;45.982;8.890;2023-03-22T14:32:01;20.88;;;12.65;;
49948;SDS011;35840;45.982;8.890;2023-03-22T14:34:30;20.67;;;12.65;;
49948;SDS011;35840;45.982;8.890;2023-03-22T14:36:59;19.48;;;13.18;;
49948;SDS011;35840;45.982;8.890;2023-03-22T14:39:31;22.33;;;12.98;;
49948;SDS011;35840;45.982;8.890;2023-03-22T14:42:00;18.67;;;12.90;;
49948;SDS011;35840;45.982;8.890;2023-03-22T14:44:26;22.58;;;13.15;;
49948;SDS011;35840;45.982;8.890;2023-03-22T14:47:01;25.40;;;14.07;;
49948;SDS011;35840;45.982;8.890;2023-03-22T14:49:37;22.88;;;13.95;;
49948;SDS011;35840;45.982;8.890;2023-03-22T14:52:04;20.38;;;12.80;;
49948;SDS011;35840;45.982;8.890;2023-03-22T14:54:30;19.77;;;12.65;;
49948;SDS011;35840;45.982;8.890;2023-03-22T14:56:58;24.52;;;12.30;;
49948;SDS011;35840;45.982;8.890;2023-03-22T14:59:26;18.95;;;11.77;;
49948;SDS011;35840;45.982;8.890;2023-03-22T15:01:55;17.13;;;11.90;;
49948;SDS011;35840;45.982;8.890;2023-03-22T15:04:26;21.00;;;13.07;;
49948;SDS011;35840;45.982;8.890;2023-03-22T15:06:55;22.63;;;12.75;;
49948;SDS011;35840;45.982;8.890;2023-03-22T15:09:24;21.08;;;13.00;;
49948;SDS011;35840;45.982;8.890;2023-03-22T15:11:56;21.55;;;13.65;;
49948;SDS011;35840;45.982;8.890;2023-03-22T15:14:26;23.35;;;13.27;;
49948;SDS011;35840;45.982;8.890;2023-03-22T15:16:54;19.23;;;12.52;;
49948;SDS011;35840;45.982;8.890;2023-03-22T15:19:21;19.38;;;12.88;;
49948;SDS011;35840;45.982;8.890;2023-03-22T15:22:04;21.70;;;13.77;;
49948;SDS011;35840;45.982;8.890;2023-03-22T15:24:47;23.05;;;14.18;;
49948;SDS011;35840;45.982;8.890;2023-03-22T15:27:28;20.10;;;13.35;;
49948;SDS011;35840;45.982;8.890;2023-03-22T15:29:55;21.25;;;13.77;;
49948;SDS011;35840;45.982;8.890;2023-03-22T15:32:23;24.08;;;13.50;;
49948;SDS011;35840;45.982;8.890;2023-03-22T15:34:51;20.38;;;12.38;;
49948;SDS011;35840;45.982;8.890;2023-03-22T15:37:31;24.67;;;14.05;;
49948;SDS011;35840;45.982;8.890;2023-03-22T15:39:59;19.17;;;12.80;;
49948;SDS011;35840;45.982;8.890;2023-03-22T15:42:29;24.23;;;14.40;;
49948;SDS011;35840;45.982;8.890;2023-03-22T15:44:58;20.90;;;12.90;;
49948;SDS011;35840;45.982;8.890;2023-03-22T15:47:24;24.13;;;12.95;;
49948;SDS011;35840;45.982;8.890;2023-03-22T15:49:56;22.17;;;13.80;;
49948;SDS011;35840;45.982;8.890;2023-03-22T15:52:26;20.42;;;12.93;;
49948;SDS011;35840;45.982;8.890;2023-03-22T15:54:57;20.40;;;13.60;;
49948;SDS011;35840;45.982;8.890;2023-03-22T16:02:45;20.55;;;13.63;;
49948;SDS011;35840;45.982;8.890;2023-03-22T16:05:16;20.23;;;12.98;;
49948;SDS011;35840;45.982;8.890;2023-03-22T16:07:44;19.35;;;12.95;;
49948;SDS011;35840;45.982;8.890;2023-03-22T16:10:14;19.13;;;13.98;;
49948;SDS011;35840;45.982;8.890;2023-03-22T16:12:42;19.88;;;13.10;;
49948;SDS011;35840;45.982;8.890;2023-03-22T16:15:11;22.58;;;13.45;;
49948;SDS011;35840;45.982;8.890;2023-03-22T16:17:39;22.48;;;12.15;;
49948;SDS011;35840;45.982;8.890;2023-03-22T16:20:05;19.60;;;11.88;;
49948;SDS011;35840;45.982;8.890;2023-03-22T16:22:32;22.55;;;13.82;;
49948;SDS011;35840;45.982;8.890;2023-03-22T16:24:58;22.50;;;13.77;;
49948;SDS011;35840;45.982;8.890;2023-03-22T16:27:26;21.13;;;11.57;;
49948;SDS011;35840;45.982;8.890;2023-03-22T16:29:52;21.65;;;13.00;;
49948;SDS011;35840;45.982;8.890;2023-03-22T16:32:22;17.15;;;11.25;;
49948;SDS011;35840;45.982;8.890;2023-03-22T16:34:50;16.55;;;11.18;;
49948;SDS011;35840;45.982;8.890;2023-03-22T16:37:20;21.10;;;12.15;;
49948;SDS011;35840;45.982;8.890;2023-03-22T16:39:47;16.77;;;11.48;;
49948;SDS011;35840;45.982;8.890;2023-03-22T16:42:15;18.85;;;11.80;;
49948;SDS011;35840;45.982;8.890;2023-03-22T16:44:43;19.25;;;10.93;;
49948;SDS011;35840;45.982;8.890;2023-03-22T16:47:11;22.63;;;11.38;;
49948;SDS011;35840;45.982;8.890;2023-03-22T16:49:38;18.25;;;11.02;;
49948;SDS011;35840;45.982;8.890;2023-03-22T16:52:04;17.77;;;10.88;;
49948;SDS011;35840;45.982;8.890;2023-03-22T16:54:30;18.17;;;11.15;;
49948;SDS011;35840;45.982;8.890;2023-03-22T16:56:57;17.98;;;11.23;;